Algernon, Nebraska
Current Conditions -  °F | °C
As of 4:53 PM on Wednesday 26 Nov 2014 (Local Time) from KBBW Reporting Station
Clear Clear  
Wind Chill: 19°   Ceiling: Unl
Heat Index: 29°   Visibility: 10mi
Dew Point: 18°   Wind: 12mph
Humidity: 64%   Direction: 340°NNW
Pressure: 30.3"   Gusts: NA
Location:  41.1632°N, 99.3112°W
Report Text: KBBW 262253Z AUTO 34010KT 10SM CLR M02/M08 A3030 RMK AO2 SLP286 T10171078
Loading
Personal Weather Stations






























Interactive Weather Map New forecast layout! Learn more

10-Day Weather Forecast

Advertisements
Track Severe Weather on mobile